sensor_id;sensor_type;location;lat;lon;timestamp;temperature;humidity
24744;DHT22;12844;52.110;5.548;2022-11-23T00:00:25;18.70;52.40
24744;DHT22;12844;52.110;5.548;2022-11-23T00:02:55;18.60;52.30
24744;DHT22;12844;52.110;5.548;2022-11-23T00:05:20;18.60;52.30
24744;DHT22;12844;52.110;5.548;2022-11-23T00:07:46;18.60;52.40
24744;DHT22;12844;52.110;5.548;2022-11-23T00:10:12;18.60;52.40
24744;DHT22;12844;52.110;5.548;2022-11-23T00:12:38;18.60;52.40
24744;DHT22;12844;52.110;5.548;2022-11-23T00:15:04;18.50;52.40
24744;DHT22;12844;52.110;5.548;2022-11-23T00:17:31;18.50;52.40
24744;DHT22;12844;52.110;5.548;2022-11-23T00:19:56;18.50;52.40
24744;DHT22;12844;52.110;5.548;2022-11-23T00:22:22;18.50;52.40
24744;DHT22;12844;52.110;5.548;2022-11-23T00:24:47;18.50;52.50
24744;DHT22;12844;52.110;5.548;2022-11-23T00:27:13;18.50;52.50
24744;DHT22;12844;52.110;5.548;2022-11-23T00:29:38;18.50;52.50
24744;DHT22;12844;52.110;5.548;2022-11-23T00:32:04;18.40;52.50
24744;DHT22;12844;52.110;5.548;2022-11-23T00:34:29;18.40;52.50
24744;DHT22;12844;52.110;5.548;2022-11-23T00:36:55;18.40;52.50
24744;DHT22;12844;52.110;5.548;2022-11-23T00:39:21;18.40;52.50
24744;DHT22;12844;52.110;5.548;2022-11-23T00:41:46;18.40;52.50
24744;DHT22;12844;52.110;5.548;2022-11-23T00:44:12;18.40;52.50
24744;DHT22;12844;52.110;5.548;2022-11-23T00:46:37;18.30;52.40
24744;DHT22;12844;52.110;5.548;2022-11-23T00:49:03;18.30;52.50
24744;DHT22;12844;52.110;5.548;2022-11-23T00:51:30;18.30;52.70
24744;DHT22;12844;52.110;5.548;2022-11-23T00:53:57;18.40;52.80
24744;DHT22;12844;52.110;5.548;2022-11-23T00:56:24;18.50;52.70
24744;DHT22;12844;52.110;5.548;2022-11-23T00:58:54;18.60;52.50
24744;DHT22;12844;52.110;5.548;2022-11-23T01:01:22;18.80;52.40
24744;DHT22;12844;52.110;5.548;2022-11-23T01:03:51;19.00;52.40
24744;DHT22;12844;52.110;5.548;2022-11-23T01:06:20;19.10;52.30
24744;DHT22;12844;52.110;5.548;2022-11-23T01:09:00;19.30;52.20
24744;DHT22;12844;52.110;5.548;2022-11-23T01:11:28;19.50;52.20
24744;DHT22;12844;52.110;5.548;2022-11-23T01:13:54;19.60;52.00
24744;DHT22;12844;52.110;5.548;2022-11-23T01:16:34;19.70;51.90
24744;DHT22;12844;52.110;5.548;2022-11-23T01:19:10;19.80;51.70
24744;DHT22;12844;52.110;5.548;2022-11-23T01:21:37;19.90;51.60
24744;DHT22;12844;52.110;5.548;2022-11-23T01:24:15;19.90;52.10
24744;DHT22;12844;52.110;5.548;2022-11-23T01:26:41;19.90;51.30
24744;DHT22;12844;52.110;5.548;2022-11-23T01:29:08;19.90;51.20
24744;DHT22;12844;52.110;5.548;2022-11-23T01:31:33;19.90;51.10
24744;DHT22;12844;52.110;5.548;2022-11-23T01:34:03;19.90;51.10
24744;DHT22;12844;52.110;5.548;2022-11-23T01:36:31;19.90;51.10
24744;DHT22;12844;52.110;5.548;2022-11-23T01:38:58;19.80;51.10
24744;DHT22;12844;52.110;5.548;2022-11-23T01:41:31;19.80;51.10
24744;DHT22;12844;52.110;5.548;2022-11-23T01:43:57;19.80;51.20
24744;DHT22;12844;52.110;5.548;2022-11-23T01:46:23;19.70;51.10
24744;DHT22;12844;52.110;5.548;2022-11-23T01:48:55;19.70;51.20
24744;DHT22;12844;52.110;5.548;2022-11-23T01:51:33;19.60;51.30
24744;DHT22;12844;52.110;5.548;2022-11-23T01:54:09;19.60;51.30
24744;DHT22;12844;52.110;5.548;2022-11-23T01:56:38;19.50;51.40
24744;DHT22;12844;52.110;5.548;2022-11-23T01:59:10;19.50;51.40
24744;DHT22;12844;52.110;5.548;2022-11-23T02:01:37;19.50;51.50
24744;DHT22;12844;52.110;5.548;2022-11-23T02:04:03;19.40;51.50
24744;DHT22;12844;52.110;5.548;2022-11-23T02:06:32;19.40;51.60
24744;DHT22;12844;52.110;5.548;2022-11-23T02:08:58;19.40;51.60
24744;DHT22;12844;52.110;5.548;2022-11-23T02:11:24;19.30;51.60
24744;DHT22;12844;52.110;5.548;2022-11-23T02:13:50;19.30;51.70
24744;DHT22;12844;52.110;5.548;2022-11-23T02:16:16;19.20;51.70
24744;DHT22;12844;52.110;5.548;2022-11-23T02:18:44;19.20;51.70
24744;DHT22;12844;52.110;5.548;2022-11-23T02:21:11;19.20;51.80
24744;DHT22;12844;52.110;5.548;2022-11-23T02:26:21;19.20;51.80
24744;DHT22;12844;52.110;5.548;2022-11-23T02:31:25;19.10;51.80
24744;DHT22;12844;52.110;5.548;2022-11-23T02:33:51;19.00;51.80
24744;DHT22;12844;52.110;5.548;2022-11-23T02:36:27;19.00;51.70
24744;DHT22;12844;52.110;5.548;2022-11-23T02:38:55;19.00;51.70
24744;DHT22;12844;52.110;5.548;2022-11-23T02:41:23;19.00;51.70
24744;DHT22;12844;52.110;5.548;2022-11-23T02:43:51;18.90;51.70
24744;DHT22;12844;52.110;5.548;2022-11-23T02:46:19;18.90;51.70
24744;DHT22;12844;52.110;5.548;2022-11-23T02:48:44;18.90;51.70
24744;DHT22;12844;52.110;5.548;2022-11-23T02:51:10;18.90;51.70
24744;DHT22;12844;52.110;5.548;2022-11-23T02:53:35;18.90;51.70
24744;DHT22;12844;52.110;5.548;2022-11-23T02:56:01;18.80;51.70
24744;DHT22;12844;52.110;5.548;2022-11-23T02:58:26;18.80;51.60
24744;DHT22;12844;52.110;5.548;2022-11-23T03:00:52;18.80;51.70
24744;DHT22;12844;52.110;5.548;2022-11-23T03:03:17;18.80;51.70
24744;DHT22;12844;52.110;5.548;2022-11-23T03:05:43;18.80;51.80
24744;DHT22;12844;52.110;5.548;2022-11-23T03:08:08;18.80;51.80
24744;DHT22;12844;52.110;5.548;2022-11-23T03:10:34;18.80;51.80
24744;DHT22;12844;52.110;5.548;2022-11-23T03:12:59;18.70;51.80
24744;DHT22;12844;52.110;5.548;2022-11-23T03:15:25;18.70;51.80
24744;DHT22;12844;52.110;5.548;2022-11-23T03:17:50;18.70;51.90
24744;DHT22;12844;52.110;5.548;2022-11-23T03:20:16;18.70;51.80
24744;DHT22;12844;52.110;5.548;2022-11-23T03:22:42;18.60;51.80
24744;DHT22;12844;52.110;5.548;2022-11-23T03:25:07;18.60;51.80
24744;DHT22;12844;52.110;5.548;2022-11-23T03:27:33;18.60;51.80
24744;DHT22;12844;52.110;5.548;2022-11-23T03:29:59;18.60;51.80
24744;DHT22;12844;52.110;5.548;2022-11-23T03:32:24;18.60;51.90
24744;DHT22;12844;52.110;5.548;2022-11-23T03:34:50;18.60;51.90
24744;DHT22;12844;52.110;5.548;2022-11-23T03:37:15;18.60;51.90
24744;DHT22;12844;52.110;5.548;2022-11-23T03:39:41;18.60;51.90
24744;DHT22;12844;52.110;5.548;2022-11-23T03:42:06;18.60;51.90
24744;DHT22;12844;52.110;5.548;2022-11-23T03:44:32;18.50;51.80
24744;DHT22;12844;52.110;5.548;2022-11-23T03:46:57;18.50;51.90
24744;DHT22;12844;52.110;5.548;2022-11-23T03:49:23;18.50;51.90
24744;DHT22;12844;52.110;5.548;2022-11-23T03:51:49;18.50;51.90
24744;DHT22;12844;52.110;5.548;2022-11-23T03:54:14;18.50;51.90
24744;DHT22;12844;52.110;5.548;2022-11-23T03:56:40;18.50;51.90
24744;DHT22;12844;52.110;5.548;2022-11-23T03:59:05;18.40;51.90
24744;DHT22;12844;52.110;5.548;2022-11-23T04:01:31;18.40;51.90
24744;DHT22;12844;52.110;5.548;2022-11-23T04:03:57;18.40;51.90
24744;DHT22;12844;52.110;5.548;2022-11-23T04:06:22;18.40;51.90
24744;DHT22;12844;52.110;5.548;2022-11-23T04:08:48;18.40;52.00
24744;DHT22;12844;52.110;5.548;2022-11-23T04:11:13;18.40;52.00
24744;DHT22;12844;52.110;5.548;2022-11-23T04:13:39;18.40;52.00
24744;DHT22;12844;52.110;5.548;2022-11-23T04:16:05;18.40;52.00
24744;DHT22;12844;52.110;5.548;2022-11-23T04:18:31;18.40;52.00
24744;DHT22;12844;52.110;5.548;2022-11-23T04:20:57;18.40;52.00
24744;DHT22;12844;52.110;5.548;2022-11-23T04:23:23;18.40;52.00
24744;DHT22;12844;52.110;5.548;2022-11-23T04:25:49;18.30;52.00
24744;DHT22;12844;52.110;5.548;2022-11-23T04:28:14;18.30;52.00
24744;DHT22;12844;52.110;5.548;2022-11-23T04:30:40;18.30;52.00
24744;DHT22;12844;52.110;5.548;2022-11-23T04:33:05;18.30;52.00
24744;DHT22;12844;52.110;5.548;2022-11-23T04:35:31;18.30;52.00
24744;DHT22;12844;52.110;5.548;2022-11-23T04:37:56;18.30;52.00
24744;DHT22;12844;52.110;5.548;2022-11-23T04:40:22;18.30;52.00
24744;DHT22;12844;52.110;5.548;2022-11-23T04:42:47;18.30;52.10
24744;DHT22;12844;52.110;5.548;2022-11-23T04:45:13;18.30;52.10
24744;DHT22;12844;52.110;5.548;2022-11-23T04:47:38;18.30;52.10
24744;DHT22;12844;52.110;5.548;2022-11-23T04:50:04;18.20;52.00
24744;DHT22;12844;52.110;5.548;2022-11-23T04:52:30;18.30;52.10
24744;DHT22;12844;52.110;5.548;2022-11-23T04:54:56;18.20;52.10
24744;DHT22;12844;52.110;5.548;2022-11-23T04:57:21;18.20;52.00
24744;DHT22;12844;52.110;5.548;2022-11-23T04:59:47;18.20;52.10
24744;DHT22;12844;52.110;5.548;2022-11-23T05:02:12;18.20;52.10
24744;DHT22;12844;52.110;5.548;2022-11-23T05:04:38;18.20;52.10
24744;DHT22;12844;52.110;5.548;2022-11-23T05:07:03;18.20;52.10
24744;DHT22;12844;52.110;5.548;2022-11-23T05:09:29;18.20;52.10
24744;DHT22;12844;52.110;5.548;2022-11-23T05:11:54;18.20;52.10
24744;DHT22;12844;52.110;5.548;2022-11-23T05:14:20;18.20;52.10
24744;DHT22;12844;52.110;5.548;2022-11-23T05:16:45;18.20;52.10
24744;DHT22;12844;52.110;5.548;2022-11-23T05:19:11;18.10;52.10
24744;DHT22;12844;52.110;5.548;2022-11-23T05:21:36;18.10;52.20
24744;DHT22;12844;52.110;5.548;2022-11-23T05:24:02;18.10;52.10
24744;DHT22;12844;52.110;5.548;2022-11-23T05:26:27;18.10;52.10
24744;DHT22;12844;52.110;5.548;2022-11-23T05:28:53;18.10;52.20
24744;DHT22;12844;52.110;5.548;2022-11-23T05:31:18;18.10;52.20
24744;DHT22;12844;52.110;5.548;2022-11-23T05:33:44;18.10;52.20
24744;DHT22;12844;52.110;5.548;2022-11-23T05:36:10;18.10;52.20
24744;DHT22;12844;52.110;5.548;2022-11-23T05:38:38;18.10;52.20
24744;DHT22;12844;52.110;5.548;2022-11-23T05:41:04;18.10;52.20
24744;DHT22;12844;52.110;5.548;2022-11-23T05:43:30;18.10;52.20
24744;DHT22;12844;52.110;5.548;2022-11-23T05:45:58;18.10;52.20
24744;DHT22;12844;52.110;5.548;2022-11-23T05:48:23;18.10;52.30
24744;DHT22;12844;52.110;5.548;2022-11-23T05:50:49;18.10;52.20
24744;DHT22;12844;52.110;5.548;2022-11-23T05:53:15;18.00;52.20
24744;DHT22;12844;52.110;5.548;2022-11-23T05:55:41;18.00;52.20
24744;DHT22;12844;52.110;5.548;2022-11-23T05:58:06;18.00;52.20
24744;DHT22;12844;52.110;5.548;2022-11-23T06:00:32;18.00;52.20
24744;DHT22;12844;52.110;5.548;2022-11-23T06:03:01;18.00;52.30
24744;DHT22;12844;52.110;5.548;2022-11-23T06:05:27;18.00;52.30
24744;DHT22;12844;52.110;5.548;2022-11-23T06:07:53;18.00;52.20
24744;DHT22;12844;52.110;5.548;2022-11-23T06:10:18;18.00;52.30
24744;DHT22;12844;52.110;5.548;2022-11-23T06:12:44;18.00;52.30
24744;DHT22;12844;52.110;5.548;2022-11-23T06:15:10;18.00;52.30
24744;DHT22;12844;52.110;5.548;2022-11-23T06:17:36;18.00;52.30
24744;DHT22;12844;52.110;5.548;2022-11-23T06:20:06;18.00;52.30
24744;DHT22;12844;52.110;5.548;2022-11-23T06:22:32;18.00;52.30
24744;DHT22;12844;52.110;5.548;2022-11-23T06:24:57;18.00;52.30
24744;DHT22;12844;52.110;5.548;2022-11-23T06:27:23;18.00;52.30
24744;DHT22;12844;52.110;5.548;2022-11-23T06:29:48;18.00;52.30
24744;DHT22;12844;52.110;5.548;2022-11-23T06:32:14;17.90;52.30
24744;DHT22;12844;52.110;5.548;2022-11-23T06:34:41;17.90;52.30
24744;DHT22;12844;52.110;5.548;2022-11-23T06:37:06;18.00;52.30
24744;DHT22;12844;52.110;5.548;2022-11-23T06:39:32;18.00;52.30
24744;DHT22;12844;52.110;5.548;2022-11-23T06:41:57;18.00;52.40
24744;DHT22;12844;52.110;5.548;2022-11-23T06:44:23;17.90;52.30
24744;DHT22;12844;52.110;5.548;2022-11-23T06:46:49;17.90;52.30
24744;DHT22;12844;52.110;5.548;2022-11-23T06:49:14;17.90;52.40
24744;DHT22;12844;52.110;5.548;2022-11-23T06:51:41;17.90;52.40
24744;DHT22;12844;52.110;5.548;2022-11-23T06:54:07;17.90;52.30
24744;DHT22;12844;52.110;5.548;2022-11-23T06:56:33;17.90;52.40
24744;DHT22;12844;52.110;5.548;2022-11-23T06:58:59;17.90;52.40
24744;DHT22;12844;52.110;5.548;2022-11-23T07:01:24;17.90;52.40
24744;DHT22;12844;52.110;5.548;2022-11-23T07:03:50;17.90;52.40
24744;DHT22;12844;52.110;5.548;2022-11-23T07:06:15;17.90;52.40
24744;DHT22;12844;52.110;5.548;2022-11-23T07:08:41;17.90;52.40
24744;DHT22;12844;52.110;5.548;2022-11-23T07:11:10;17.80;52.30
24744;DHT22;12844;52.110;5.548;2022-11-23T07:13:36;17.90;52.40
24744;DHT22;12844;52.110;5.548;2022-11-23T07:16:01;17.90;52.40
24744;DHT22;12844;52.110;5.548;2022-11-23T07:18:27;17.90;52.50
24744;DHT22;12844;52.110;5.548;2022-11-23T07:20:53;17.80;52.40
24744;DHT22;12844;52.110;5.548;2022-11-23T07:23:18;17.90;52.40
24744;DHT22;12844;52.110;5.548;2022-11-23T07:25:44;17.80;52.40
24744;DHT22;12844;52.110;5.548;2022-11-23T07:28:11;17.80;52.40
24744;DHT22;12844;52.110;5.548;2022-11-23T07:30:37;17.80;52.40
24744;DHT22;12844;52.110;5.548;2022-11-23T07:33:08;17.80;52.40
24744;DHT22;12844;52.110;5.548;2022-11-23T07:35:34;17.80;52.40
24744;DHT22;12844;52.110;5.548;2022-11-23T07:38:01;17.80;52.40
24744;DHT22;12844;52.110;5.548;2022-11-23T07:40:27;17.80;52.40
24744;DHT22;12844;52.110;5.548;2022-11-23T07:42:57;17.80;52.40
24744;DHT22;12844;52.110;5.548;2022-11-23T07:45:23;17.80;52.40
24744;DHT22;12844;52.110;5.548;2022-11-23T07:47:59;17.80;52.40
24744;DHT22;12844;52.110;5.548;2022-11-23T07:50:25;17.70;53.00
24744;DHT22;12844;52.110;5.548;2022-11-23T07:52:51;17.80;52.40
24744;DHT22;12844;52.110;5.548;2022-11-23T07:55:16;17.80;52.40
24744;DHT22;12844;52.110;5.548;2022-11-23T07:57:42;17.70;52.40
24744;DHT22;12844;52.110;5.548;2022-11-23T08:00:08;17.70;52.40
24744;DHT22;12844;52.110;5.548;2022-11-23T08:02:34;17.70;52.40
24744;DHT22;12844;52.110;5.548;2022-11-23T08:04:59;17.80;52.50
24744;DHT22;12844;52.110;5.548;2022-11-23T08:07:24;17.70;52.40
24744;DHT22;12844;52.110;5.548;2022-11-23T08:09:50;17.80;52.40
24744;DHT22;12844;52.110;5.548;2022-11-23T08:12:15;17.70;52.50
24744;DHT22;12844;52.110;5.548;2022-11-23T08:14:41;17.70;52.40
24744;DHT22;12844;52.110;5.548;2022-11-23T08:17:07;17.70;52.40
24744;DHT22;12844;52.110;5.548;2022-11-23T08:19:33;17.70;52.50
24744;DHT22;12844;52.110;5.548;2022-11-23T08:21:58;17.70;52.40
24744;DHT22;12844;52.110;5.548;2022-11-23T08:24:24;17.70;52.40
24744;DHT22;12844;52.110;5.548;2022-11-23T08:26:49;17.70;52.50
24744;DHT22;12844;52.110;5.548;2022-11-23T08:29:15;17.70;52.40
24744;DHT22;12844;52.110;5.548;2022-11-23T08:31:40;17.70;52.40
24744;DHT22;12844;52.110;5.548;2022-11-23T08:34:06;17.70;52.40
24744;DHT22;12844;52.110;5.548;2022-11-23T08:36:31;17.70;52.50
24744;DHT22;12844;52.110;5.548;2022-11-23T08:38:57;17.70;52.40
24744;DHT22;12844;52.110;5.548;2022-11-23T08:41:23;17.70;52.50
24744;DHT22;12844;52.110;5.548;2022-11-23T08:43:49;17.80;52.40
24744;DHT22;12844;52.110;5.548;2022-11-23T08:46:15;18.00;52.30
24744;DHT22;12844;52.110;5.548;2022-11-23T08:48:41;18.20;52.20
24744;DHT22;12844;52.110;5.548;2022-11-23T08:51:07;18.30;52.10
24744;DHT22;12844;52.110;5.548;2022-11-23T08:53:33;18.50;52.20
24744;DHT22;12844;52.110;5.548;2022-11-23T08:56:03;18.80;52.00
24744;DHT22;12844;52.110;5.548;2022-11-23T08:58:29;19.00;51.90
24744;DHT22;12844;52.110;5.548;2022-11-23T09:00:55;19.20;51.60
24744;DHT22;12844;52.110;5.548;2022-11-23T09:03:21;19.40;51.40
24744;DHT22;12844;52.110;5.548;2022-11-23T09:05:46;19.50;51.40
24744;DHT22;12844;52.110;5.548;2022-11-23T09:08:12;19.70;51.10
24744;DHT22;12844;52.110;5.548;2022-11-23T09:10:39;19.70;51.10
24744;DHT22;12844;52.110;5.548;2022-11-23T09:13:05;19.70;51.10
24744;DHT22;12844;52.110;5.548;2022-11-23T09:15:30;19.70;51.00
24744;DHT22;12844;52.110;5.548;2022-11-23T09:17:56;19.80;51.20
24744;DHT22;12844;52.110;5.548;2022-11-23T09:20:22;19.90;51.20
24744;DHT22;12844;52.110;5.548;2022-11-23T09:22:50;20.00;51.30
24744;DHT22;12844;52.110;5.548;2022-11-23T09:25:16;20.10;51.10
24744;DHT22;12844;52.110;5.548;2022-11-23T09:27:41;20.30;51.10
24744;DHT22;12844;52.110;5.548;2022-11-23T09:30:07;20.30;50.80
24744;DHT22;12844;52.110;5.548;2022-11-23T09:32:33;20.40;50.70
24744;DHT22;12844;52.110;5.548;2022-11-23T09:34:59;20.50;50.70
24744;DHT22;12844;52.110;5.548;2022-11-23T09:37:24;20.50;50.70
24744;DHT22;12844;52.110;5.548;2022-11-23T09:39:50;20.50;50.80
24744;DHT22;12844;52.110;5.548;2022-11-23T09:42:38;20.40;50.60
24744;DHT22;12844;52.110;5.548;2022-11-23T09:50:50;20.30;50.90
24744;DHT22;12844;52.110;5.548;2022-11-23T09:53:24;20.30;51.10
24744;DHT22;12844;52.110;5.548;2022-11-23T09:55:55;20.30;51.20
24744;DHT22;12844;52.110;5.548;2022-11-23T09:58:23;20.40;51.30
24744;DHT22;12844;52.110;5.548;2022-11-23T10:00:56;20.50;51.40
24744;DHT22;12844;52.110;5.548;2022-11-23T10:03:24;20.60;51.20
24744;DHT22;12844;52.110;5.548;2022-11-23T10:08:42;20.90;50.80
24744;DHT22;12844;52.110;5.548;2022-11-23T10:17:28;21.10;50.60
24744;DHT22;12844;52.110;5.548;2022-11-23T10:22:31;21.00;50.60
24744;DHT22;12844;52.110;5.548;2022-11-23T10:24:59;21.00;50.60
24744;DHT22;12844;52.110;5.548;2022-11-23T10:27:28;21.00;51.20
24744;DHT22;12844;52.110;5.548;2022-11-23T10:29:54;20.90;50.60
24744;DHT22;12844;52.110;5.548;2022-11-23T10:35:21;20.90;50.50
24744;DHT22;12844;52.110;5.548;2022-11-23T10:37:49;20.80;50.70
24744;DHT22;12844;52.110;5.548;2022-11-23T10:40:22;20.80;50.90
24744;DHT22;12844;52.110;5.548;2022-11-23T10:43:12;20.80;50.80
24744;DHT22;12844;52.110;5.548;2022-11-23T10:45:39;20.70;50.80
24744;DHT22;12844;52.110;5.548;2022-11-23T10:48:04;20.60;50.90
24744;DHT22;12844;52.110;5.548;2022-11-23T10:50:33;20.60;50.90
24744;DHT22;12844;52.110;5.548;2022-11-23T10:56:05;20.50;51.10
24744;DHT22;12844;52.110;5.548;2022-11-23T10:58:44;20.40;51.10
24744;DHT22;12844;52.110;5.548;2022-11-23T11:01:14;20.40;51.20
24744;DHT22;12844;52.110;5.548;2022-11-23T11:03:40;20.30;51.30
24744;DHT22;12844;52.110;5.548;2022-11-23T11:06:06;20.30;51.40
24744;DHT22;12844;52.110;5.548;2022-11-23T11:08:34;20.20;51.30
24744;DHT22;12844;52.110;5.548;2022-11-23T11:11:09;20.20;51.30
24744;DHT22;12844;52.110;5.548;2022-11-23T11:13:43;20.20;51.40
24744;DHT22;12844;52.110;5.548;2022-11-23T11:18:47;20.10;51.40
24744;DHT22;12844;52.110;5.548;2022-11-23T11:21:19;20.10;51.50
24744;DHT22;12844;52.110;5.548;2022-11-23T11:23:57;20.10;51.60
24744;DHT22;12844;52.110;5.548;2022-11-23T11:26:26;20.00;51.50
24744;DHT22;12844;52.110;5.548;2022-11-23T11:28:53;20.00;51.60
24744;DHT22;12844;52.110;5.548;2022-11-23T11:31:32;19.90;51.60
24744;DHT22;12844;52.110;5.548;2022-11-23T11:36:33;19.90;51.80
24744;DHT22;12844;52.110;5.548;2022-11-23T11:39:02;19.90;51.80
24744;DHT22;12844;52.110;5.548;2022-11-23T11:41:31;19.80;51.80
24744;DHT22;12844;52.110;5.548;2022-11-23T11:44:05;19.80;51.80
24744;DHT22;12844;52.110;5.548;2022-11-23T11:46:39;19.80;51.90
24744;DHT22;12844;52.110;5.548;2022-11-23T11:51:45;19.70;51.80
24744;DHT22;12844;52.110;5.548;2022-11-23T11:57:27;19.70;51.90
24744;DHT22;12844;52.110;5.548;2022-11-23T11:59:54;19.60;52.00
24744;DHT22;12844;52.110;5.548;2022-11-23T12:02:32;19.60;52.00
24744;DHT22;12844;52.110;5.548;2022-11-23T12:08:13;19.60;52.10
24744;DHT22;12844;52.110;5.548;2022-11-23T12:13:12;19.50;52.30
24744;DHT22;12844;52.110;5.548;2022-11-23T12:15:41;19.50;52.40
24744;DHT22;12844;52.110;5.548;2022-11-23T12:18:36;19.50;52.40
24744;DHT22;12844;52.110;5.548;2022-11-23T12:21:04;19.50;52.40
24744;DHT22;12844;52.110;5.548;2022-11-23T12:26:36;19.50;52.40
24744;DHT22;12844;52.110;5.548;2022-11-23T12:29:41;19.50;52.50
24744;DHT22;12844;52.110;5.548;2022-11-23T12:32:33;19.50;52.60
24744;DHT22;12844;52.110;5.548;2022-11-23T12:44:35;19.40;52.90
24744;DHT22;12844;52.110;5.548;2022-11-23T12:49:57;19.40;53.10
24744;DHT22;12844;52.110;5.548;2022-11-23T12:55:17;19.40;53.10
24744;DHT22;12844;52.110;5.548;2022-11-23T13:00:22;19.40;53.20
24744;DHT22;12844;52.110;5.548;2022-11-23T13:08:58;19.40;53.20
24744;DHT22;12844;52.110;5.548;2022-11-23T13:12:04;19.40;53.30
24744;DHT22;12844;52.110;5.548;2022-11-23T13:14:45;19.30;53.30
24744;DHT22;12844;52.110;5.548;2022-11-23T13:20:19;19.20;53.30
24744;DHT22;12844;52.110;5.548;2022-11-23T13:22:46;19.20;53.40
24744;DHT22;12844;52.110;5.548;2022-11-23T13:30:37;19.30;53.50
24744;DHT22;12844;52.110;5.548;2022-11-23T13:40:33;19.70;54.00
24744;DHT22;12844;52.110;5.548;2022-11-23T13:43:18;20.00;53.90
24744;DHT22;12844;52.110;5.548;2022-11-23T13:45:45;20.20;54.30
24744;DHT22;12844;52.110;5.548;2022-11-23T13:50:59;20.50;53.60
24744;DHT22;12844;52.110;5.548;2022-11-23T13:53:35;20.80;53.40
24744;DHT22;12844;52.110;5.548;2022-11-23T13:56:22;20.90;53.20
24744;DHT22;12844;52.110;5.548;2022-11-23T13:58:56;21.00;52.90
24744;DHT22;12844;52.110;5.548;2022-11-23T14:01:57;21.10;52.70
24744;DHT22;12844;52.110;5.548;2022-11-23T14:04:30;21.10;52.60
24744;DHT22;12844;52.110;5.548;2022-11-23T14:09:49;21.00;52.50
24744;DHT22;12844;52.110;5.548;2022-11-23T14:12:45;21.00;52.40
24744;DHT22;12844;52.110;5.548;2022-11-23T14:15:22;21.00;52.40
24744;DHT22;12844;52.110;5.548;2022-11-23T14:20:57;20.90;52.50
24744;DHT22;12844;52.110;5.548;2022-11-23T14:23:44;20.90;52.50
24744;DHT22;12844;52.110;5.548;2022-11-23T14:34:42;20.70;52.60
24744;DHT22;12844;52.110;5.548;2022-11-23T14:42:24;20.50;52.80
24744;DHT22;12844;52.110;5.548;2022-11-23T14:44:51;20.40;52.90
24744;DHT22;12844;52.110;5.548;2022-11-23T14:47:29;20.40;52.90
24744;DHT22;12844;52.110;5.548;2022-11-23T14:49:55;20.40;53.00
24744;DHT22;12844;52.110;5.548;2022-11-23T14:52:30;20.30;53.10
24744;DHT22;12844;52.110;5.548;2022-11-23T14:55:01;20.30;53.00
24744;DHT22;12844;52.110;5.548;2022-11-23T14:57:37;20.30;52.90
24744;DHT22;12844;52.110;5.548;2022-11-23T15:00:04;20.30;52.90
24744;DHT22;12844;52.110;5.548;2022-11-23T15:02:38;20.20;53.00
24744;DHT22;12844;52.110;5.548;2022-11-23T15:05:23;20.20;53.00
24744;DHT22;12844;52.110;5.548;2022-11-23T15:10:26;20.10;53.10
24744;DHT22;12844;52.110;5.548;2022-11-23T15:12:54;20.10;53.00
24744;DHT22;12844;52.110;5.548;2022-11-23T15:15:27;20.10;53.00
24744;DHT22;12844;52.110;5.548;2022-11-23T15:18:01;20.00;52.90
24744;DHT22;12844;52.110;5.548;2022-11-23T15:20:31;20.00;53.00
24744;DHT22;12844;52.110;5.548;2022-11-23T15:23:02;20.00;53.00
24744;DHT22;12844;52.110;5.548;2022-11-23T15:25:28;19.90;53.10
24744;DHT22;12844;52.110;5.548;2022-11-23T15:27:54;20.00;53.80
24744;DHT22;12844;52.110;5.548;2022-11-23T15:30:28;20.00;53.80
24744;DHT22;12844;52.110;5.548;2022-11-23T15:33:03;20.10;53.70
24744;DHT22;12844;52.110;5.548;2022-11-23T15:35:35;20.30;53.50
24744;DHT22;12844;52.110;5.548;2022-11-23T15:38:03;20.30;53.40
24744;DHT22;12844;52.110;5.548;2022-11-23T15:40:35;20.60;53.50
24744;DHT22;12844;52.110;5.548;2022-11-23T15:43:01;20.80;53.80
24744;DHT22;12844;52.110;5.548;2022-11-23T15:48:00;21.10;52.80
24744;DHT22;12844;52.110;5.548;2022-11-23T15:50:26;21.20;52.50
24744;DHT22;12844;52.110;5.548;2022-11-23T15:52:52;21.20;52.50
24744;DHT22;12844;52.110;5.548;2022-11-23T15:55:17;21.20;52.50
24744;DHT22;12844;52.110;5.548;2022-11-23T15:57:51;21.20;53.10
24744;DHT22;12844;52.110;5.548;2022-11-23T16:00:23;21.20;52.40
24744;DHT22;12844;52.110;5.548;2022-11-23T16:02:49;21.20;52.30
24744;DHT22;12844;52.110;5.548;2022-11-23T16:05:20;21.20;52.40
24744;DHT22;12844;52.110;5.548;2022-11-23T16:07:55;21.20;52.20
24744;DHT22;12844;52.110;5.548;2022-11-23T16:10:30;21.20;52.20
24744;DHT22;12844;52.110;5.548;2022-11-23T16:12:58;21.10;52.40
24744;DHT22;12844;52.110;5.548;2022-11-23T16:18:02;21.00;52.30
24744;DHT22;12844;52.110;5.548;2022-11-23T16:20:28;21.00;52.50
24744;DHT22;12844;52.110;5.548;2022-11-23T16:22:55;21.00;52.60
24744;DHT22;12844;52.110;5.548;2022-11-23T16:25:32;20.90;53.30
24744;DHT22;12844;52.110;5.548;2022-11-23T16:28:04;20.90;52.70
24744;DHT22;12844;52.110;5.548;2022-11-23T16:30:39;20.80;52.80
24744;DHT22;12844;52.110;5.548;2022-11-23T16:33:05;20.80;52.90
24744;DHT22;12844;52.110;5.548;2022-11-23T16:35:36;20.70;53.00
24744;DHT22;12844;52.110;5.548;2022-11-23T16:38:02;20.70;53.00
24744;DHT22;12844;52.110;5.548;2022-11-23T16:40:27;20.60;53.10
24744;DHT22;12844;52.110;5.548;2022-11-23T16:42:53;20.60;53.10
24744;DHT22;12844;52.110;5.548;2022-11-23T16:45:18;20.60;53.20
24744;DHT22;12844;52.110;5.548;2022-11-23T16:47:54;20.50;52.90
24744;DHT22;12844;52.110;5.548;2022-11-23T16:50:21;20.50;53.10
24744;DHT22;12844;52.110;5.548;2022-11-23T16:52:47;20.50;53.20
24744;DHT22;12844;52.110;5.548;2022-11-23T16:55:13;20.40;53.10
24744;DHT22;12844;52.110;5.548;2022-11-23T16:57:39;20.40;53.10
24744;DHT22;12844;52.110;5.548;2022-11-23T17:00:10;20.40;53.10
24744;DHT22;12844;52.110;5.548;2022-11-23T17:02:38;20.30;53.00
24744;DHT22;12844;52.110;5.548;2022-11-23T17:05:12;20.30;53.10
24744;DHT22;12844;52.110;5.548;2022-11-23T17:07:37;20.30;53.10
24744;DHT22;12844;52.110;5.548;2022-11-23T17:10:03;20.30;53.20
24744;DHT22;12844;52.110;5.548;2022-11-23T17:12:29;20.30;53.20
24744;DHT22;12844;52.110;5.548;2022-11-23T17:14:54;20.20;53.10
24744;DHT22;12844;52.110;5.548;2022-11-23T17:17:21;20.20;53.20
24744;DHT22;12844;52.110;5.548;2022-11-23T17:19:48;20.20;53.30
24744;DHT22;12844;52.110;5.548;2022-11-23T17:22:18;20.20;53.20
24744;DHT22;12844;52.110;5.548;2022-11-23T17:24:44;20.20;53.30
24744;DHT22;12844;52.110;5.548;2022-11-23T17:27:13;20.10;53.30
24744;DHT22;12844;52.110;5.548;2022-11-23T17:29:40;20.10;53.40
24744;DHT22;12844;52.110;5.548;2022-11-23T17:32:09;20.10;53.50
24744;DHT22;12844;52.110;5.548;2022-11-23T17:34:35;20.10;53.70